createdAt,value
2018-07-12T00:02:07.441Z,14.70
2018-07-12T00:07:02.210Z,14.70
2018-07-12T00:09:29.458Z,14.70
2018-07-12T00:11:56.703Z,14.70
2018-07-12T00:14:23.939Z,14.80
2018-07-12T00:16:51.193Z,14.80
2018-07-12T00:19:18.435Z,14.80
2018-07-12T00:21:45.674Z,14.80
2018-07-12T00:24:12.905Z,14.70
2018-07-12T00:26:40.151Z,14.70
2018-07-12T00:29:07.399Z,14.70
2018-07-12T00:31:34.645Z,14.70
2018-07-12T00:34:01.878Z,14.70
2018-07-12T00:36:29.129Z,14.70
2018-07-12T00:38:56.388Z,14.70
2018-07-12T00:41:23.638Z,14.70
2018-07-12T00:43:50.899Z,14.60
2018-07-12T00:46:18.154Z,14.70
2018-07-12T00:48:45.414Z,14.70
2018-07-12T00:51:12.703Z,14.60
2018-07-12T00:53:39.954Z,14.60
2018-07-12T00:56:07.550Z,14.60
2018-07-12T00:58:34.801Z,14.50
2018-07-12T01:01:02.058Z,14.50
2018-07-12T01:03:29.334Z,14.50
2018-07-12T01:05:56.588Z,14.50
2018-07-12T01:08:23.834Z,14.50
2018-07-12T01:10:51.071Z,14.60
2018-07-12T01:13:18.312Z,14.50
2018-07-12T01:15:45.565Z,14.50
2018-07-12T01:18:12.807Z,14.60
2018-07-12T01:20:40.050Z,14.60
2018-07-12T01:23:07.318Z,14.50
2018-07-12T01:25:34.570Z,14.50
2018-07-12T01:28:01.813Z,14.50
2018-07-12T01:30:29.067Z,14.50
2018-07-12T01:32:56.305Z,14.50
2018-07-12T01:35:23.556Z,14.50
2018-07-12T01:37:50.801Z,14.50
2018-07-12T01:40:18.053Z,14.50
2018-07-12T01:42:45.291Z,14.50
2018-07-12T01:45:12.530Z,14.50
2018-07-12T01:47:39.787Z,14.60
2018-07-12T01:50:07.037Z,14.50
2018-07-12T01:52:34.287Z,14.60
2018-07-12T01:55:01.534Z,14.60
2018-07-12T01:57:28.785Z,14.60
2018-07-12T01:59:56.028Z,14.60
2018-07-12T02:02:23.289Z,14.60
2018-07-12T02:04:50.546Z,14.60
2018-07-12T02:07:17.803Z,14.60
2018-07-12T02:09:45.050Z,14.60
2018-07-12T02:12:12.307Z,14.60
2018-07-12T02:14:39.554Z,14.60
2018-07-12T02:17:06.824Z,14.50
2018-07-12T02:19:34.067Z,14.50
2018-07-12T02:22:01.315Z,14.50
2018-07-12T02:24:28.562Z,14.50
2018-07-12T02:26:55.842Z,14.50
2018-07-12T02:29:23.087Z,14.50
2018-07-12T02:31:50.322Z,14.60
2018-07-12T02:34:17.699Z,14.60
2018-07-12T02:36:44.947Z,14.60
2018-07-12T02:39:12.191Z,14.60
2018-07-12T02:41:39.438Z,14.60
2018-07-12T02:44:06.694Z,14.60
2018-07-12T02:46:33.931Z,14.60
2018-07-12T02:49:01.170Z,14.50
2018-07-12T02:51:28.407Z,14.40
2018-07-12T02:53:55.668Z,14.40
2018-07-12T02:56:22.918Z,14.30
2018-07-12T02:58:50.181Z,14.30
2018-07-12T03:01:17.434Z,14.20
2018-07-12T03:03:44.670Z,14.30
2018-07-12T03:06:11.919Z,14.30
2018-07-12T03:08:39.206Z,14.30
2018-07-12T03:11:06.432Z,14.30
2018-07-12T03:13:33.674Z,14.40
2018-07-12T03:16:00.922Z,14.40
2018-07-12T03:18:28.166Z,14.30
2018-07-12T03:20:55.418Z,14.30
2018-07-12T03:23:22.665Z,14.20
2018-07-12T03:25:49.910Z,14.10
2018-07-12T03:28:17.166Z,14.00
2018-07-12T03:30:44.466Z,13.90
2018-07-12T03:33:11.724Z,13.80
2018-07-12T03:35:38.995Z,13.70
2018-07-12T03:38:06.259Z,13.60
2018-07-12T03:40:33.588Z,13.50
2018-07-12T03:43:00.778Z,13.40
2018-07-12T03:45:28.019Z,13.30
2018-07-12T03:47:55.266Z,13.20
2018-07-12T03:50:22.507Z,13.20
2018-07-12T03:52:49.750Z,13.20
2018-07-12T03:55:16.994Z,13.30
2018-07-12T03:57:44.261Z,13.30
2018-07-12T04:00:11.506Z,13.40
2018-07-12T04:02:39.368Z,13.50
2018-07-12T04:05:06.618Z,13.50
2018-07-12T04:07:33.854Z,13.60
2018-07-12T04:10:01.101Z,13.70
2018-07-12T04:12:28.358Z,13.80
2018-07-12T04:14:55.686Z,13.90
2018-07-12T04:17:34.952Z,14.00
2018-07-12T04:20:03.429Z,14.10
2018-07-12T04:22:31.842Z,14.10
2018-07-12T04:24:59.084Z,14.20
2018-07-12T04:27:26.623Z,14.20
2018-07-12T04:29:55.119Z,14.20
2018-07-12T04:32:22.384Z,14.30
2018-07-12T04:34:50.117Z,14.30
2018-07-12T04:37:17.675Z,14.40
2018-07-12T04:39:45.186Z,14.30
2018-07-12T04:42:12.430Z,14.20
2018-07-12T04:44:39.682Z,14.20
2018-07-12T04:47:07.232Z,14.10
2018-07-12T04:49:34.479Z,14.10
2018-07-12T04:52:01.739Z,14.20
2018-07-12T04:54:29.373Z,14.30
2018-07-12T04:56:56.615Z,14.50
2018-07-12T04:59:23.878Z,14.60
2018-07-12T05:01:51.132Z,14.70
2018-07-12T05:07:48.778Z,15.00
2018-07-12T05:10:16.015Z,15.10
2018-07-12T05:12:43.258Z,15.20
2018-07-12T05:15:10.504Z,15.20
2018-07-12T05:17:37.750Z,15.30
2018-07-12T05:20:04.990Z,15.40
2018-07-12T05:22:32.239Z,15.60
2018-07-12T05:24:59.475Z,15.70
2018-07-12T05:27:26.748Z,15.90
2018-07-12T05:29:54.003Z,15.90
2018-07-12T05:32:21.252Z,15.90
2018-07-12T05:34:48.767Z,15.90
2018-07-12T05:37:17.032Z,15.90
2018-07-12T05:39:45.286Z,15.70
2018-07-12T05:42:13.543Z,15.80
2018-07-12T05:44:41.801Z,15.80
2018-07-12T05:47:10.059Z,15.70
2018-07-12T05:49:38.337Z,15.70
2018-07-12T05:52:06.682Z,15.60
2018-07-12T05:54:34.961Z,15.60
2018-07-12T05:57:03.264Z,15.60
2018-07-12T05:59:31.522Z,15.70
2018-07-12T06:04:33.419Z,15.70
2018-07-12T06:07:01.677Z,15.80
2018-07-12T06:09:29.963Z,15.90
2018-07-12T06:11:58.219Z,16.00
2018-07-12T06:14:26.474Z,16.00
2018-07-12T06:16:54.722Z,16.10
2018-07-12T06:19:22.978Z,16.20
2018-07-12T06:21:51.261Z,16.50
2018-07-12T06:24:19.523Z,16.50
2018-07-12T06:26:47.783Z,16.80
2018-07-12T06:29:16.036Z,16.90
2018-07-12T06:31:44.306Z,16.90
2018-07-12T06:34:12.567Z,16.90
2018-07-12T06:39:10.506Z,17.00
2018-07-12T06:41:39.028Z,17.30
2018-07-12T06:44:07.310Z,17.50
2018-07-12T06:46:35.582Z,17.80
2018-07-12T06:49:03.838Z,18.40
2018-07-12T06:51:32.179Z,18.80
2018-07-12T06:54:00.476Z,19.50
2018-07-12T06:56:28.735Z,19.50
2018-07-12T06:58:57.070Z,19.30
2018-07-12T07:01:25.350Z,18.70
2018-07-12T07:03:53.595Z,18.50
2018-07-12T07:06:21.863Z,18.40
2018-07-12T07:08:50.117Z,18.70
2018-07-12T07:11:18.399Z,19.20
2018-07-12T07:13:46.919Z,19.10
2018-07-12T07:16:15.175Z,19.20
2018-07-12T07:18:43.436Z,19.70
2018-07-12T07:21:11.685Z,20.50
2018-07-12T07:23:39.972Z,21.40
2018-07-12T07:26:08.276Z,22.50
2018-07-12T07:28:36.534Z,22.30
2018-07-12T07:31:04.792Z,21.50
2018-07-12T07:33:33.082Z,20.60
2018-07-12T07:36:01.331Z,20.80
2018-07-12T07:38:29.614Z,20.70
2018-07-12T07:40:57.883Z,21.00
2018-07-12T07:43:26.150Z,20.80
2018-07-12T07:45:54.531Z,20.40
2018-07-12T07:48:23.153Z,20.40
2018-07-12T07:50:51.410Z,20.50
2018-07-12T07:53:19.679Z,20.80
2018-07-12T07:55:47.932Z,20.80
2018-07-12T07:58:16.179Z,21.30
2018-07-12T08:00:44.437Z,21.50
2018-07-12T08:03:12.699Z,21.20
2018-07-12T08:05:40.958Z,21.30
2018-07-12T08:08:09.222Z,21.10
2018-07-12T08:10:37.476Z,20.90
2018-07-12T08:13:05.735Z,22.40
2018-07-12T08:15:33.999Z,24.20
2018-07-12T08:18:02.252Z,25.50
2018-07-12T08:20:30.557Z,26.90
2018-07-12T08:22:58.827Z,27.60
2018-07-12T08:25:27.099Z,27.00
2018-07-12T08:28:06.871Z,27.40
2018-07-12T08:30:35.159Z,26.40
2018-07-12T08:33:03.431Z,24.90
2018-07-12T08:35:31.718Z,23.80
2018-07-12T08:37:59.970Z,24.00
2018-07-12T08:40:28.226Z,23.80
2018-07-12T08:42:56.497Z,23.90
2018-07-12T08:47:53.103Z,23.40
2018-07-12T08:52:49.343Z,21.30
2018-07-12T08:55:17.590Z,21.50
2018-07-12T08:57:46.526Z,21.20
2018-07-12T09:00:14.772Z,21.50
2018-07-12T09:02:43.279Z,21.00
2018-07-12T09:05:11.719Z,21.40
2018-07-12T09:07:39.983Z,21.80
2018-07-12T09:10:08.294Z,22.40
2018-07-12T09:12:36.557Z,24.10
2018-07-12T09:15:04.815Z,26.10
2018-07-12T09:17:33.074Z,26.60
2018-07-12T09:20:01.339Z,26.60
2018-07-12T09:22:29.599Z,25.90
2018-07-12T09:24:57.872Z,26.00
2018-07-12T09:27:26.227Z,25.80
2018-07-12T09:29:54.495Z,25.70
2018-07-12T09:32:22.754Z,25.90
2018-07-12T09:34:51.177Z,27.50
2018-07-12T09:37:19.395Z,30.00
2018-07-12T09:39:47.742Z,32.00
2018-07-12T09:42:15.974Z,32.70
2018-07-12T09:44:44.229Z,31.70
2018-07-12T09:47:12.480Z,29.10
2018-07-12T09:49:40.756Z,27.30
2018-07-12T09:52:14.370Z,27.10
2018-07-12T09:54:42.626Z,27.20
2018-07-12T09:57:22.430Z,28.60
2018-07-12T09:59:50.722Z,29.00
2018-07-12T10:02:24.565Z,28.40
2018-07-12T10:04:52.845Z,26.90
2018-07-12T10:07:26.462Z,26.30
2018-07-12T10:09:56.363Z,27.50
2018-07-12T10:12:30.062Z,27.50
2018-07-12T10:15:03.754Z,27.90
2018-07-12T10:17:37.463Z,27.20
2018-07-12T10:20:06.471Z,27.90
2018-07-12T10:22:34.730Z,29.70
2018-07-12T10:25:03.010Z,31.90
2018-07-12T10:27:31.346Z,33.10
2018-07-12T10:29:59.623Z,34.20
2018-07-12T10:32:27.870Z,34.10
2018-07-12T10:34:56.150Z,32.50
2018-07-12T10:37:24.396Z,30.30
2018-07-12T10:39:52.865Z,27.90
2018-07-12T10:42:21.135Z,26.60
2018-07-12T10:44:49.405Z,26.00
2018-07-12T10:47:17.663Z,26.30
2018-07-12T10:49:45.939Z,26.10
2018-07-12T10:52:14.202Z,25.20
2018-07-12T10:54:42.478Z,24.70
2018-07-12T10:57:10.722Z,24.50
2018-07-12T10:59:38.982Z,24.60
2018-07-12T11:02:07.251Z,27.00
2018-07-12T11:04:35.531Z,29.70
2018-07-12T11:07:03.755Z,30.00
2018-07-12T11:09:32.011Z,29.50
2018-07-12T11:14:28.301Z,27.90
2018-07-12T11:16:56.571Z,28.10
2018-07-12T11:19:24.824Z,28.80
2018-07-12T11:21:53.082Z,29.80
2018-07-12T11:24:21.346Z,29.30
2018-07-12T11:26:49.603Z,29.40
2018-07-12T11:29:18.672Z,29.80
2018-07-12T11:31:46.930Z,29.60
2018-07-12T11:34:15.180Z,29.00
2018-07-12T11:36:43.455Z,28.90
2018-07-12T11:39:11.705Z,29.90
2018-07-12T11:41:39.973Z,29.50
2018-07-12T11:44:08.243Z,30.40
2018-07-12T11:46:36.540Z,30.90
2018-07-12T11:49:04.806Z,29.60
2018-07-12T11:51:33.059Z,28.60
2018-07-12T11:54:01.310Z,29.00
2018-07-12T11:56:29.575Z,29.20
2018-07-12T11:58:57.838Z,29.00
2018-07-12T12:01:26.150Z,28.50
2018-07-12T12:03:54.354Z,28.20
2018-07-12T12:06:22.622Z,27.60
2018-07-12T12:08:50.887Z,26.80
2018-07-12T12:11:19.152Z,26.20
2018-07-12T12:13:47.436Z,26.30
2018-07-12T12:16:15.690Z,26.60
2018-07-12T12:18:43.967Z,27.00
2018-07-12T12:21:12.224Z,28.40
2018-07-12T12:23:40.481Z,29.20
2018-07-12T12:26:08.768Z,29.80
2018-07-12T12:28:37.011Z,28.70
2018-07-12T12:31:05.557Z,28.50
2018-07-12T12:33:33.857Z,28.70
2018-07-12T12:36:02.127Z,29.50
2018-07-12T12:38:30.386Z,29.50
2018-07-12T12:40:58.637Z,29.00
2018-07-12T12:43:26.886Z,27.90
2018-07-12T12:45:55.171Z,27.50
2018-07-12T12:48:23.442Z,26.70
2018-07-12T12:50:51.717Z,27.40
2018-07-12T12:53:19.955Z,27.40
2018-07-12T12:55:48.214Z,27.60
2018-07-12T12:58:17.208Z,27.30
2018-07-12T13:00:45.472Z,26.80
2018-07-12T13:05:41.759Z,26.00
2018-07-12T13:08:10.054Z,26.10
2018-07-12T13:10:38.308Z,26.20
2018-07-12T13:13:06.823Z,26.00
2018-07-12T13:15:36.292Z,26.20
2018-07-12T13:18:04.771Z,26.40
2018-07-12T13:20:33.042Z,26.70
2018-07-12T13:23:01.431Z,26.50
2018-07-12T13:25:29.742Z,26.70
2018-07-12T13:27:58.052Z,26.50
2018-07-12T13:30:26.400Z,26.20
2018-07-12T13:32:54.710Z,25.90
2018-07-12T13:35:23.012Z,25.60
2018-07-12T13:37:51.276Z,25.50
2018-07-12T13:40:19.538Z,25.70
2018-07-12T13:42:47.832Z,26.00
2018-07-12T13:45:16.116Z,25.70
2018-07-12T13:47:44.407Z,26.10
2018-07-12T13:50:12.659Z,26.50
2018-07-12T13:52:40.971Z,25.90
2018-07-12T13:55:09.237Z,25.60
2018-07-12T13:57:37.588Z,25.50
2018-07-12T14:00:06.067Z,25.10
2018-07-12T14:02:34.374Z,24.80
2018-07-12T14:05:02.735Z,24.80
2018-07-12T14:07:30.981Z,25.00
2018-07-12T14:09:59.274Z,25.60
2018-07-12T14:12:27.636Z,26.40
2018-07-12T14:14:55.986Z,26.70
2018-07-12T14:17:24.314Z,26.90
2018-07-12T14:22:21.445Z,27.00
2018-07-12T14:24:49.703Z,27.20
2018-07-12T14:27:18.029Z,27.30
2018-07-12T14:29:46.253Z,27.30
2018-07-12T14:32:14.508Z,27.40
2018-07-12T14:34:42.850Z,27.50
2018-07-12T14:37:11.290Z,27.70
2018-07-12T14:39:39.664Z,27.10
2018-07-12T14:42:07.939Z,27.20
2018-07-12T14:44:36.206Z,27.00
2018-07-12T14:47:04.511Z,26.90
2018-07-12T14:49:33.471Z,26.50
2018-07-12T14:52:01.760Z,26.20
2018-07-12T14:54:30.044Z,26.40
2018-07-12T14:56:58.300Z,26.40
2018-07-12T14:59:26.580Z,26.50
2018-07-12T15:01:54.948Z,26.50
2018-07-12T15:04:23.385Z,26.30
2018-07-12T15:06:51.732Z,25.80
2018-07-12T15:09:20.227Z,25.80
2018-07-12T15:11:48.535Z,25.70
2018-07-12T15:14:16.846Z,25.70
2018-07-12T15:16:45.206Z,26.00
2018-07-12T15:19:13.583Z,26.00
2018-07-12T15:21:41.868Z,25.80
2018-07-12T15:24:10.120Z,25.80
2018-07-12T15:26:38.399Z,25.80
2018-07-12T15:29:06.657Z,25.50
2018-07-12T15:31:35.078Z,25.40
2018-07-12T15:34:03.484Z,25.40
2018-07-12T15:36:34.186Z,25.30
2018-07-12T15:39:02.898Z,25.30
2018-07-12T15:41:31.283Z,25.30
2018-07-12T15:43:59.934Z,24.80
2018-07-12T15:46:28.317Z,25.00
2018-07-12T15:48:56.712Z,25.00
2018-07-12T15:51:25.088Z,25.00
2018-07-12T15:53:53.434Z,25.20
2018-07-12T15:56:21.710Z,25.40
2018-07-12T16:01:18.443Z,25.70
2018-07-12T16:03:46.726Z,25.70
2018-07-12T16:06:15.024Z,25.70
2018-07-12T16:08:43.331Z,25.30
2018-07-12T16:11:11.761Z,25.00
2018-07-12T16:13:40.090Z,25.00
2018-07-12T16:16:08.466Z,25.00
2018-07-12T16:18:36.770Z,25.00
2018-07-12T16:21:05.080Z,24.90
2018-07-12T16:23:33.355Z,24.80
2018-07-12T16:26:01.643Z,24.70
2018-07-12T16:28:29.929Z,24.70
2018-07-12T16:30:58.220Z,24.60
2018-07-12T16:33:26.746Z,24.60
2018-07-12T16:35:55.005Z,24.80
2018-07-12T16:38:23.314Z,24.80
2018-07-12T16:40:51.650Z,24.90
2018-07-12T16:43:19.906Z,24.70
2018-07-12T16:45:48.210Z,24.90
2018-07-12T16:48:16.499Z,24.90
2018-07-12T16:50:45.058Z,24.90
2018-07-12T16:53:13.342Z,25.00
2018-07-12T16:55:41.612Z,24.90
2018-07-12T16:58:09.873Z,24.80
2018-07-12T17:00:39.067Z,24.80
2018-07-12T17:03:07.416Z,24.70
2018-07-12T17:05:35.740Z,24.60
2018-07-12T17:08:04.130Z,24.40
2018-07-12T17:10:32.454Z,24.30
2018-07-12T17:13:00.711Z,24.20
2018-07-12T17:15:29.018Z,24.20
2018-07-12T17:17:57.438Z,24.00
2018-07-12T17:20:25.707Z,23.80
2018-07-12T17:22:54.006Z,23.80
2018-07-12T17:25:22.279Z,23.80
2018-07-12T17:27:50.556Z,23.80
2018-07-12T17:30:18.847Z,23.80
2018-07-12T17:32:47.112Z,23.80
2018-07-12T17:35:15.369Z,23.70
2018-07-12T17:37:43.638Z,23.60
2018-07-12T17:40:11.954Z,23.60
2018-07-12T17:42:40.239Z,23.50
2018-07-12T17:45:09.325Z,23.40
2018-07-12T17:47:37.748Z,23.30
2018-07-12T17:50:05.970Z,23.30
2018-07-12T17:52:34.248Z,23.30
2018-07-12T17:55:02.504Z,23.20
2018-07-12T17:57:30.774Z,23.10
2018-07-12T17:59:59.091Z,23.10
2018-07-12T18:02:27.814Z,23.00
2018-07-12T18:04:56.125Z,22.90
2018-07-12T18:07:24.451Z,22.90
2018-07-12T18:09:52.722Z,22.80
2018-07-12T18:12:20.986Z,22.70
2018-07-12T18:14:49.256Z,22.70
2018-07-12T18:17:17.600Z,22.60
2018-07-12T18:19:46.029Z,22.50
2018-07-12T18:22:14.349Z,22.40
2018-07-12T18:24:42.549Z,22.30
2018-07-12T18:27:10.806Z,22.20
2018-07-12T18:29:39.091Z,22.00
2018-07-12T18:32:07.350Z,22.10
2018-07-12T18:34:35.612Z,21.90
2018-07-12T18:37:03.983Z,21.80
2018-07-12T18:39:32.238Z,21.70
2018-07-12T18:42:00.486Z,21.50
2018-07-12T18:44:28.749Z,21.40
2018-07-12T18:46:57.035Z,21.30
2018-07-12T18:49:25.299Z,21.30
2018-07-12T18:51:53.546Z,21.20
2018-07-12T18:54:21.823Z,21.20
2018-07-12T18:56:50.239Z,21.10
2018-07-12T18:59:18.495Z,21.00
2018-07-12T19:01:46.785Z,20.80
2018-07-12T19:04:15.044Z,20.70
2018-07-12T19:06:43.295Z,20.50
2018-07-12T19:09:11.608Z,20.50
2018-07-12T19:11:39.860Z,20.40
2018-07-12T19:14:09.141Z,20.40
2018-07-12T19:16:37.402Z,20.40
2018-07-12T19:19:05.663Z,20.40
2018-07-12T19:21:33.914Z,20.30
2018-07-12T19:24:02.467Z,20.20
2018-07-12T19:26:30.775Z,20.20
2018-07-12T19:28:59.019Z,20.20
2018-07-12T19:31:27.306Z,20.30
2018-07-12T19:33:55.622Z,20.40
2018-07-12T19:36:23.874Z,20.50
2018-07-12T19:38:52.166Z,20.60
2018-07-12T19:41:20.599Z,20.50
2018-07-12T19:43:48.963Z,20.50
2018-07-12T19:46:17.238Z,20.50
2018-07-12T19:48:45.502Z,20.50
2018-07-12T19:51:13.784Z,20.50
2018-07-12T19:53:42.046Z,20.50
2018-07-12T19:56:10.349Z,20.50
2018-07-12T19:58:39.030Z,20.40
2018-07-12T20:01:08.576Z,20.40
2018-07-12T20:03:36.892Z,20.30
2018-07-12T20:06:05.532Z,20.30
2018-07-12T20:08:33.801Z,20.30
2018-07-12T20:11:02.179Z,20.20
2018-07-12T20:13:30.436Z,20.10
2018-07-12T20:15:58.823Z,20.20
2018-07-12T20:18:27.633Z,20.20
2018-07-12T20:20:55.918Z,20.20
2018-07-12T20:23:24.303Z,20.20
2018-07-12T20:25:52.634Z,20.20
2018-07-12T20:28:20.922Z,20.30
2018-07-12T20:30:49.703Z,20.30
2018-07-12T20:35:45.998Z,20.10
2018-07-12T20:38:14.348Z,19.90
2018-07-12T20:40:42.653Z,19.70
2018-07-12T20:43:14.997Z,19.70
2018-07-12T20:45:43.274Z,19.70
2018-07-12T20:48:11.566Z,19.50
2018-07-12T20:50:39.828Z,19.40
2018-07-12T20:53:08.253Z,19.40
2018-07-12T20:55:36.611Z,19.30
2018-07-12T20:58:04.883Z,19.20
2018-07-12T21:00:33.133Z,19.10
2018-07-12T21:03:01.386Z,19.10
2018-07-12T21:05:30.737Z,19.00
2018-07-12T21:07:58.984Z,19.00
2018-07-12T21:10:27.263Z,18.90
2018-07-12T21:12:55.526Z,18.80
2018-07-12T21:15:23.854Z,18.70
2018-07-12T21:17:52.062Z,18.70
2018-07-12T21:20:20.320Z,18.60
2018-07-12T21:22:48.643Z,18.60
2018-07-12T21:25:16.902Z,18.60
2018-07-12T21:27:45.158Z,18.40
2018-07-12T21:30:13.435Z,18.30
2018-07-12T21:32:41.686Z,18.20
2018-07-12T21:35:10.128Z,18.00
2018-07-12T21:37:38.515Z,17.90
2018-07-12T21:40:07.083Z,17.90
2018-07-12T21:42:35.367Z,17.80
2018-07-12T21:45:03.716Z,17.80
2018-07-12T21:47:31.975Z,17.70
2018-07-12T21:50:00.233Z,17.70
2018-07-12T21:52:28.490Z,17.60
2018-07-12T21:54:56.739Z,17.50
2018-07-12T21:57:24.981Z,17.40
2018-07-12T21:59:53.222Z,17.40
2018-07-12T22:02:21.604Z,17.40
2018-07-12T22:04:49.859Z,17.40
2018-07-12T22:08:23.967Z,17.30
2018-07-12T22:10:53.446Z,17.20
2018-07-12T22:13:22.508Z,17.00
2018-07-12T22:15:50.764Z,17.00
2018-07-12T22:18:19.274Z,17.00
2018-07-12T22:20:47.551Z,16.90
2018-07-12T22:23:15.820Z,16.90
2018-07-12T22:25:44.066Z,16.90
2018-07-12T22:28:12.426Z,16.80
2018-07-12T22:30:40.742Z,16.80
2018-07-12T22:33:08.997Z,16.70
2018-07-12T22:35:37.711Z,16.70
2018-07-12T22:38:06.206Z,16.70
2018-07-12T22:40:34.477Z,16.60
2018-07-12T22:43:02.733Z,16.60
2018-07-12T22:45:30.982Z,16.60
2018-07-12T22:47:59.281Z,16.50
2018-07-12T22:50:27.538Z,16.50
2018-07-12T22:52:55.933Z,16.50
2018-07-12T22:55:24.185Z,16.50
2018-07-12T23:00:20.443Z,16.40
2018-07-12T23:02:48.708Z,16.40
2018-07-12T23:05:17.020Z,16.40
2018-07-12T23:07:45.279Z,16.30
2018-07-12T23:10:13.536Z,16.30
2018-07-12T23:12:41.779Z,16.30
2018-07-12T23:15:10.039Z,16.20
2018-07-12T23:17:38.286Z,16.10
2018-07-12T23:20:06.559Z,16.10
2018-07-12T23:22:34.823Z,16.00
2018-07-12T23:25:03.101Z,16.00
2018-07-12T23:27:31.358Z,15.90
2018-07-12T23:29:59.627Z,15.80
2018-07-12T23:32:27.884Z,15.80
2018-07-12T23:34:56.131Z,15.80
2018-07-12T23:37:24.388Z,15.70
2018-07-12T23:39:52.639Z,15.70
2018-07-12T23:42:20.903Z,15.60
2018-07-12T23:44:49.218Z,15.60
2018-07-12T23:47:17.486Z,15.60
2018-07-12T23:49:45.809Z,15.60
2018-07-12T23:52:14.069Z,15.50
2018-07-12T23:54:42.334Z,15.50
2018-07-12T23:57:10.588Z,15.50
2018-07-12T23:59:38.847Z,15.50
